createdAt,value
2018-03-22T00:00:06.961Z,30.9
2018-03-22T00:00:56.637Z,30.8
2018-03-22T00:01:46.690Z,30.6
2018-03-22T00:02:37.949Z,30.4
2018-03-22T00:03:27.033Z,30.3
2018-03-22T00:04:15.537Z,30.1
2018-03-22T00:05:07.258Z,30
2018-03-22T00:05:56.226Z,29.8
2018-03-22T00:06:47.439Z,29.7
2018-03-22T00:07:36.399Z,28.6
2018-03-22T00:08:27.465Z,28.2
2018-03-22T00:10:05.801Z,27.6
2018-03-22T00:10:57.201Z,27.4
2018-03-22T00:11:47.939Z,27.4
2018-03-22T00:12:36.693Z,27.7
2018-03-22T00:13:26.990Z,27.8
2018-03-22T00:14:16.849Z,27.9
2018-03-22T00:15:06.342Z,28.2
2018-03-22T00:15:56.981Z,28.4
2018-03-22T00:16:48.305Z,28.6
2018-03-22T00:17:37.715Z,28.9
2018-03-22T00:18:28.251Z,29.2
2018-03-22T00:19:17.786Z,29.4
2018-03-22T00:20:07.856Z,29.6
2018-03-22T00:20:57.948Z,29.8
2018-03-22T00:21:48.091Z,30
2018-03-22T00:22:38.218Z,30.1
2018-03-22T00:23:28.888Z,30.3
2018-03-22T00:24:18.295Z,30.4
2018-03-22T00:25:08.123Z,30.4
2018-03-22T00:25:57.956Z,30.1
2018-03-22T00:26:48.645Z,29.9
2018-03-22T00:27:39.472Z,29.4
2018-03-22T00:28:29.682Z,28.6
2018-03-22T00:29:18.662Z,27.8
2018-03-22T00:30:08.480Z,26.8
2018-03-22T00:30:57.452Z,26.3
2018-03-22T00:31:49.188Z,26.4
2018-03-22T00:32:38.807Z,27
2018-03-22T00:33:29.105Z,27.4
2018-03-22T00:35:08.333Z,28.1
2018-03-22T00:35:58.902Z,28.4
2018-03-22T00:36:49.627Z,28.7
2018-03-22T00:37:38.225Z,29
2018-03-22T00:38:29.285Z,29.3
2018-03-22T00:39:19.375Z,29.6
2018-03-22T00:40:09.499Z,29.8
2018-03-22T00:40:59.143Z,30.1
2018-03-22T00:41:49.989Z,30.3
2018-03-22T00:42:39.894Z,30.5
2018-03-22T00:43:29.884Z,30.7
2018-03-22T00:44:19.216Z,30.9
2018-03-22T00:45:10.339Z,31.1
2018-03-22T00:45:58.786Z,31.3
2018-03-22T00:46:49.729Z,31.4
2018-03-22T00:47:39.781Z,31.3
2018-03-22T00:48:28.993Z,31.1
2018-03-22T00:49:19.915Z,30.9
2018-03-22T00:50:10.338Z,30.8
2018-03-22T00:50:59.928Z,30.7
2018-03-22T00:51:50.054Z,30.5
2018-03-22T00:52:40.361Z,30.4
2018-03-22T00:53:30.716Z,30.2
2018-03-22T00:54:20.129Z,30.1
2018-03-22T00:55:09.594Z,29.9
2018-03-22T00:56:00.152Z,29.8
2018-03-22T00:56:50.648Z,29.6
2018-03-22T00:57:40.953Z,28.4
2018-03-22T00:58:30.061Z,28
2018-03-22T00:59:19.816Z,27.7
2018-03-22T01:00:11.663Z,27.5
2018-03-22T01:01:01.455Z,27.4
2018-03-22T01:01:50.753Z,27.5
2018-03-22T01:02:41.137Z,27.6
2018-03-22T01:04:21.253Z,28.1
2018-03-22T01:05:11.213Z,28.3
2018-03-22T01:06:01.252Z,28.6
2018-03-22T01:06:52.090Z,28.8
2018-03-22T01:07:41.161Z,29.1
2018-03-22T01:08:30.356Z,29.3
2018-03-22T01:09:22.202Z,29.6
2018-03-22T01:10:11.601Z,29.8
2018-03-22T01:11:01.420Z,30
2018-03-22T01:11:52.066Z,30.2
2018-03-22T01:12:41.735Z,30.4
2018-03-22T01:13:31.378Z,30.5
2018-03-22T01:14:21.759Z,30.7
2018-03-22T01:15:12.105Z,30.9
2018-03-22T01:16:02.565Z,31
2018-03-22T01:16:52.017Z,31.1
2018-03-22T01:17:42.915Z,31.3
2018-03-22T01:18:31.274Z,31.4
2018-03-22T01:19:22.629Z,31.3
2018-03-22T01:20:11.652Z,31.1
2018-03-22T01:21:01.709Z,30.9
2018-03-22T01:21:51.774Z,30.8
2018-03-22T01:22:42.575Z,30.6
2018-03-22T01:23:31.219Z,30.4
2018-03-22T01:24:22.619Z,30.3
2018-03-22T01:25:11.899Z,30.2
2018-03-22T01:26:02.683Z,30.1
2018-03-22T01:26:52.992Z,29.9
2018-03-22T01:27:42.682Z,29.8
2018-03-22T01:28:32.122Z,28.8
2018-03-22T01:29:20.938Z,28.2
2018-03-22T01:30:12.452Z,27.9
2018-03-22T01:31:02.708Z,27.6
2018-03-22T01:31:52.817Z,27.4
2018-03-22T01:32:43.155Z,27.4
2018-03-22T01:33:33.141Z,27.6
2018-03-22T01:34:23.355Z,27.6
2018-03-22T01:35:13.329Z,27.9
2018-03-22T01:36:02.755Z,28.1
2018-03-22T01:36:54.024Z,28.3
2018-03-22T01:37:44.273Z,28.6
2018-03-22T01:38:32.641Z,28.8
2018-03-22T01:39:23.891Z,29.1
2018-03-22T01:40:13.383Z,29.3
2018-03-22T01:41:03.794Z,29.5
2018-03-22T01:41:53.511Z,29.7
2018-03-22T01:42:43.473Z,29.9
2018-03-22T01:43:33.676Z,30.1
2018-03-22T01:44:23.972Z,30.2
2018-03-22T01:45:12.887Z,30.4
2018-03-22T01:46:04.167Z,30.6
2018-03-22T01:46:53.705Z,30.7
2018-03-22T01:47:44.200Z,30.8
2018-03-22T01:48:33.946Z,31
2018-03-22T01:49:24.083Z,31.1
2018-03-22T01:50:15.018Z,31.3
2018-03-22T01:51:04.038Z,31.4
2018-03-22T01:51:54.450Z,31.3
2018-03-22T01:52:44.407Z,31.2
2018-03-22T01:53:33.904Z,31
2018-03-22T01:54:24.666Z,30.9
2018-03-22T01:55:13.810Z,30.7
2018-03-22T01:56:04.084Z,30.6
2018-03-22T01:56:55.023Z,30.4
2018-03-22T01:57:44.870Z,30.3
2018-03-22T01:58:35.231Z,30.1
2018-03-22T01:59:24.623Z,29.9
2018-03-22T02:00:15.093Z,29.8
2018-03-22T02:01:05.371Z,29.6
2018-03-22T02:01:54.757Z,28.6
2018-03-22T02:02:45.728Z,28.1
2018-03-22T02:03:35.642Z,27.8
2018-03-22T02:04:24.759Z,27.6
2018-03-22T02:05:15.184Z,27.4
2018-03-22T02:06:04.595Z,27.4
2018-03-22T02:06:56.364Z,27.6
2018-03-22T02:07:45.019Z,27.7
2018-03-22T02:08:34.723Z,27.9
2018-03-22T02:09:26.177Z,28.2
2018-03-22T02:10:15.771Z,28.4
2018-03-22T02:11:05.984Z,28.6
2018-03-22T02:11:56.925Z,28.9
2018-03-22T02:12:44.928Z,29.1
2018-03-22T02:13:35.224Z,29.4
2018-03-22T02:14:26.236Z,29.6
2018-03-22T02:15:16.082Z,29.8
2018-03-22T02:16:06.176Z,29.9
2018-03-22T02:16:55.156Z,30.1
2018-03-22T02:17:46.684Z,30.3
2018-03-22T02:18:36.029Z,30.4
2018-03-22T02:19:26.997Z,30.5
2018-03-22T02:20:16.464Z,30.6
2018-03-22T02:21:06.006Z,30.8
2018-03-22T02:21:56.634Z,30.9
2018-03-22T02:22:46.709Z,31
2018-03-22T02:23:36.454Z,31.1
2018-03-22T02:24:27.230Z,31.2
2018-03-22T02:25:15.524Z,31.3
2018-03-22T02:26:07.101Z,31.4
2018-03-22T02:26:57.032Z,31.3
2018-03-22T02:27:47.182Z,31.1
2018-03-22T02:28:37.827Z,31
2018-03-22T02:29:26.741Z,30.8
2018-03-22T02:30:17.673Z,30.7
2018-03-22T02:31:07.221Z,30.6
2018-03-22T02:31:56.996Z,30.4
2018-03-22T02:32:47.719Z,30.3
2018-03-22T02:33:37.631Z,30.1
2018-03-22T02:34:27.369Z,29.9
2018-03-22T02:35:17.755Z,29.8
2018-03-22T02:36:06.209Z,28.8
2018-03-22T02:36:57.537Z,28.3
2018-03-22T02:37:48.082Z,27.9
2018-03-22T02:38:37.352Z,27.6
2018-03-22T02:39:27.814Z,27.4
2018-03-22T02:40:18.586Z,27.4
2018-03-22T02:41:07.580Z,27.5
2018-03-22T02:41:57.787Z,27.6
2018-03-22T02:43:37.616Z,28
2018-03-22T02:44:28.450Z,28.3
2018-03-22T02:45:18.069Z,28.4
2018-03-22T02:46:09.000Z,28.7
2018-03-22T02:46:58.334Z,28.9
2018-03-22T02:47:47.742Z,29.1
2018-03-22T02:48:38.664Z,29.3
2018-03-22T02:49:28.720Z,29.5
2018-03-22T02:50:19.330Z,29.7
2018-03-22T02:51:08.139Z,29.8
2018-03-22T02:51:58.469Z,29.9
2018-03-22T02:52:48.841Z,30.1
2018-03-22T02:53:38.290Z,30.2
2018-03-22T02:54:28.264Z,30.3
2018-03-22T02:55:18.731Z,30.4
2018-03-22T02:56:08.896Z,30.6
2018-03-22T02:56:59.366Z,30.6
2018-03-22T02:57:48.702Z,30.7
2018-03-22T02:58:39.343Z,30.8
2018-03-22T02:59:28.553Z,30.9
2018-03-22T03:00:19.983Z,30.9
2018-03-22T03:01:08.631Z,31
2018-03-22T03:01:59.678Z,31.1
2018-03-22T03:02:49.359Z,31.1
2018-03-22T03:03:38.707Z,31.1
2018-03-22T03:04:28.865Z,31.2
2018-03-22T03:05:18.606Z,31.3
2018-03-22T03:06:09.070Z,31.3
2018-03-22T03:06:59.357Z,31.3
2018-03-22T03:07:50.279Z,31.3
2018-03-22T03:08:40.136Z,31.4
2018-03-22T03:09:29.013Z,31.3
2018-03-22T03:10:18.962Z,31.3
2018-03-22T03:11:09.512Z,30.9
2018-03-22T03:11:59.144Z,30.4
2018-03-22T03:12:50.091Z,30.2
2018-03-22T03:13:40.049Z,29.5
2018-03-22T03:14:30.784Z,28.7
2018-03-22T03:16:10.951Z,26.9
2018-03-22T03:16:59.634Z,25.9
2018-03-22T03:17:50.133Z,25.6
2018-03-22T03:18:40.501Z,25.8
2018-03-22T03:19:31.202Z,26.5
2018-03-22T03:20:20.045Z,27.1
2018-03-22T03:21:10.784Z,27.6
2018-03-22T03:22:01.498Z,27.9
2018-03-22T03:22:50.608Z,28.2
2018-03-22T03:23:41.084Z,28.5
2018-03-22T03:24:29.650Z,28.9
2018-03-22T03:25:20.474Z,29.1
2018-03-22T03:26:10.638Z,29.4
2018-03-22T03:26:59.814Z,29.7
2018-03-22T03:27:50.944Z,29.9
2018-03-22T03:28:40.933Z,30.1
2018-03-22T03:29:31.773Z,30.3
2018-03-22T03:30:21.836Z,30.5
2018-03-22T03:31:11.527Z,30.8
2018-03-22T03:32:01.990Z,30.9
2018-03-22T03:32:51.038Z,31.1
2018-03-22T03:33:40.967Z,31.2
2018-03-22T03:34:32.362Z,31.4
2018-03-22T03:35:21.492Z,31.2
2018-03-22T03:36:12.465Z,31.1
2018-03-22T03:37:01.833Z,30.9
2018-03-22T03:37:50.396Z,30.8
2018-03-22T03:38:40.445Z,30.6
2018-03-22T03:39:30.951Z,30.4
2018-03-22T03:40:21.371Z,30.3
2018-03-22T03:41:11.492Z,30.1
2018-03-22T03:42:01.789Z,30
2018-03-22T03:42:51.409Z,29.8
2018-03-22T03:43:43.164Z,29.7
2018-03-22T03:44:31.846Z,28.9
2018-03-22T03:45:22.120Z,28.3
2018-03-22T03:46:11.631Z,27.9
2018-03-22T03:47:03.013Z,27.6
2018-03-22T03:47:51.921Z,27.4
2018-03-22T03:48:43.359Z,27.4
2018-03-22T03:49:32.210Z,27.5
2018-03-22T03:50:22.772Z,27.6
2018-03-22T03:52:01.868Z,28.1
2018-03-22T03:52:53.404Z,28.3
2018-03-22T03:53:42.669Z,28.5
2018-03-22T03:54:33.030Z,28.8
2018-03-22T03:55:22.776Z,29.1
2018-03-22T03:56:12.756Z,29.3
2018-03-22T03:57:03.755Z,29.4
2018-03-22T03:57:52.661Z,29.7
2018-03-22T03:58:42.591Z,29.9
2018-03-22T03:59:34.008Z,30.1
2018-03-22T04:00:23.298Z,30.3
2018-03-22T04:01:13.765Z,30.4
2018-03-22T04:02:03.277Z,30.6
2018-03-22T04:02:53.665Z,30.7
2018-03-22T04:03:43.748Z,30.9
2018-03-22T04:04:34.223Z,31
2018-03-22T04:05:23.965Z,31.1
2018-03-22T04:06:13.340Z,31.3
2018-03-22T04:07:02.721Z,31.4
2018-03-22T04:07:53.649Z,31.3
2018-03-22T04:08:43.611Z,31.1
2018-03-22T04:09:33.779Z,30.9
2018-03-22T04:10:24.427Z,30.8
2018-03-22T04:11:14.510Z,30.6
2018-03-22T04:12:05.422Z,30.5
2018-03-22T04:12:55.097Z,30.3
2018-03-22T04:13:44.251Z,30.2
2018-03-22T04:14:34.612Z,30
2018-03-22T04:15:24.367Z,29.9
2018-03-22T04:16:14.512Z,29.7
2018-03-22T04:17:05.247Z,28.7
2018-03-22T04:17:54.425Z,28.2
2018-03-22T04:18:44.306Z,27.9
2018-03-22T04:19:35.134Z,27.6
2018-03-22T04:20:25.487Z,27.4
2018-03-22T04:21:14.457Z,27.4
2018-03-22T04:22:04.237Z,27.5
2018-03-22T04:22:55.305Z,27.6
2018-03-22T04:24:35.027Z,28.1
2018-03-22T04:25:24.704Z,28.3
2018-03-22T04:26:13.939Z,28.5
2018-03-22T04:27:06.051Z,28.8
2018-03-22T04:27:55.976Z,29
2018-03-22T04:28:45.424Z,29.2
2018-03-22T04:29:36.279Z,29.4
2018-03-22T04:30:25.225Z,29.6
2018-03-22T04:31:16.163Z,29.8
2018-03-22T04:32:05.849Z,29.9
2018-03-22T04:32:55.677Z,30.1
2018-03-22T04:33:45.939Z,30.3
2018-03-22T04:34:36.628Z,30.4
2018-03-22T04:35:25.878Z,30.5
2018-03-22T04:36:15.158Z,30.7
2018-03-22T04:37:05.795Z,30.8
2018-03-22T04:37:56.041Z,30.9
2018-03-22T04:38:46.053Z,31.1
2018-03-22T04:39:36.452Z,31.1
2018-03-22T04:40:26.203Z,31.3
2018-03-22T04:41:16.266Z,31.4
2018-03-22T04:42:05.631Z,31.3
2018-03-22T04:42:56.912Z,31.2
2018-03-22T04:43:46.265Z,31
2018-03-22T04:44:36.338Z,30.8
2018-03-22T04:45:27.389Z,30.6
2018-03-22T04:46:16.018Z,30.5
2018-03-22T04:47:06.220Z,30.3
2018-03-22T04:47:56.690Z,30.2
2018-03-22T04:48:47.730Z,30
2018-03-22T04:49:36.077Z,29.9
2018-03-22T04:50:26.132Z,29.8
2018-03-22T04:51:16.621Z,28.8
2018-03-22T04:52:06.624Z,28.2
2018-03-22T04:52:56.530Z,27.9
2018-03-22T04:53:48.455Z,27.6
2018-03-22T04:54:38.834Z,27.4
2018-03-22T04:55:28.260Z,27.3
2018-03-22T04:56:18.617Z,27.1
2018-03-22T04:57:08.052Z,27
2018-03-22T04:57:58.757Z,26.9
2018-03-22T04:58:48.545Z,26.8
2018-03-22T04:59:38.606Z,26.6
2018-03-22T05:00:28.630Z,26.8
2018-03-22T05:01:18.997Z,27
2018-03-22T05:02:07.337Z,27.2
2018-03-22T05:02:58.801Z,27.4
2018-03-22T05:03:48.909Z,27.7
2018-03-22T05:04:38.927Z,27.9
2018-03-22T05:05:28.979Z,28.1
2018-03-22T05:06:19.636Z,28.4
2018-03-22T05:07:09.472Z,28.6
2018-03-22T05:07:59.741Z,28.9
2018-03-22T05:08:48.639Z,29.1
2018-03-22T05:09:39.834Z,29.3
2018-03-22T05:10:30.188Z,29.4
2018-03-22T05:11:19.689Z,29.6
2018-03-22T05:12:09.486Z,29.8
2018-03-22T05:12:59.199Z,29.8
2018-03-22T05:13:49.432Z,30
2018-03-22T05:14:40.242Z,30.2
2018-03-22T05:15:29.472Z,30.3
2018-03-22T05:16:19.739Z,30.4
2018-03-22T05:17:09.574Z,30.5
2018-03-22T05:17:59.850Z,30.6
2018-03-22T05:18:50.709Z,30.6
2018-03-22T05:19:39.954Z,30.8
2018-03-22T05:20:30.058Z,30.8
2018-03-22T05:21:20.363Z,30.9
2018-03-22T05:22:10.724Z,31
2018-03-22T05:22:59.899Z,31.1
2018-03-22T05:23:51.129Z,31.1
2018-03-22T05:24:40.667Z,31.2
2018-03-22T05:25:30.702Z,31.3
2018-03-22T05:26:20.972Z,31.3
2018-03-22T05:27:10.507Z,31.4
2018-03-22T05:28:01.124Z,31.2
2018-03-22T05:28:51.434Z,31
2018-03-22T05:29:41.204Z,30.9
2018-03-22T05:30:30.995Z,30.7
2018-03-22T05:31:21.664Z,30.6
2018-03-22T05:32:11.111Z,30.4
2018-03-22T05:33:01.138Z,30.3
2018-03-22T05:33:51.551Z,30.1
2018-03-22T05:34:41.589Z,29.9
2018-03-22T05:35:31.905Z,29.8
2018-03-22T05:36:21.938Z,29.6
2018-03-22T05:37:11.760Z,28.5
2018-03-22T05:38:01.808Z,28
2018-03-22T05:38:51.843Z,27.7
2018-03-22T05:39:42.191Z,27.5
2018-03-22T05:40:31.963Z,27.3
2018-03-22T05:41:21.976Z,27.2
2018-03-22T05:42:11.034Z,27.1
2018-03-22T05:43:00.926Z,26.9
2018-03-22T05:43:51.002Z,26.8
2018-03-22T05:44:41.005Z,26.6
2018-03-22T05:45:29.405Z,26.7
2018-03-22T05:46:21.017Z,26.8
2018-03-22T05:47:10.741Z,27.1
2018-03-22T05:48:01.283Z,27.3
2018-03-22T05:48:51.507Z,27.5
2018-03-22T05:49:41.516Z,27.7
2018-03-22T05:50:31.525Z,27.9
2018-03-22T05:51:20.549Z,28.1
2018-03-22T05:52:11.451Z,28.3
2018-03-22T05:53:01.054Z,28.6
2018-03-22T05:53:51.567Z,28.8
2018-03-22T05:54:41.080Z,28.9
2018-03-22T05:55:31.407Z,29.1
2018-03-22T05:56:21.120Z,29.2
2018-03-22T05:57:11.720Z,29.3
2018-03-22T05:58:01.930Z,29.4
2018-03-22T05:58:51.960Z,29.6
2018-03-22T05:59:41.726Z,29.6
2018-03-22T06:00:32.247Z,29.8
2018-03-22T06:01:22.947Z,29.8
2018-03-22T06:02:11.919Z,29.9
2018-03-22T06:03:02.069Z,30
2018-03-22T06:03:51.826Z,30.1
2018-03-22T06:04:42.041Z,30.1
2018-03-22T06:05:31.844Z,30.2
2018-03-22T06:06:21.788Z,30.3
2018-03-22T06:07:11.748Z,30.3
2018-03-22T06:08:02.327Z,30.3
2018-03-22T06:08:53.373Z,29.9
2018-03-22T06:09:42.709Z,29.7
2018-03-22T06:10:32.378Z,29.3
2018-03-22T06:11:23.326Z,28.6
2018-03-22T06:12:12.274Z,27.9
2018-03-22T06:13:02.610Z,27.1
2018-03-22T06:13:52.244Z,26.1
2018-03-22T06:14:43.452Z,25.4
2018-03-22T06:15:30.869Z,25.1
2018-03-22T06:16:23.679Z,25.4
2018-03-22T06:17:12.279Z,26.3
2018-03-22T06:18:03.382Z,26.8
2018-03-22T06:18:53.089Z,27.2
2018-03-22T06:19:42.321Z,27.5
2018-03-22T06:21:22.850Z,28.1
2018-03-22T06:22:13.187Z,28.4
2018-03-22T06:23:03.429Z,28.8
2018-03-22T06:23:53.481Z,29
2018-03-22T06:24:42.380Z,29.3
2018-03-22T06:25:32.541Z,29.4
2018-03-22T06:26:23.206Z,29.7
2018-03-22T06:27:12.332Z,29.9
2018-03-22T06:28:04.461Z,30.1
2018-03-22T06:28:54.495Z,30.3
2018-03-22T06:29:43.733Z,30.4
2018-03-22T06:30:32.597Z,30.6
2018-03-22T06:31:23.606Z,30.8
2018-03-22T06:32:14.065Z,30.9
2018-03-22T06:33:04.232Z,31.1
2018-03-22T06:33:52.704Z,31.2
2018-03-22T06:34:44.408Z,31.3
2018-03-22T06:35:34.437Z,31.3
2018-03-22T06:36:24.296Z,31.1
2018-03-22T06:37:14.944Z,30.9
2018-03-22T06:38:04.153Z,30.8
2018-03-22T06:38:54.330Z,30.6
2018-03-22T06:39:44.508Z,30.5
2018-03-22T06:40:33.010Z,30.3
2018-03-22T06:41:23.972Z,30.2
2018-03-22T06:42:13.585Z,30
2018-03-22T06:43:03.722Z,29.9
2018-03-22T06:43:54.338Z,29.7
2018-03-22T06:44:44.572Z,28.6
2018-03-22T06:45:34.595Z,28
2018-03-22T06:46:24.395Z,27.7
2018-03-22T06:47:15.173Z,27.4
2018-03-22T06:48:04.707Z,27.3
2018-03-22T06:48:54.233Z,27.1
2018-03-22T06:49:45.424Z,26.9
2018-03-22T06:50:35.217Z,26.8
2018-03-22T06:51:24.627Z,26.7
2018-03-22T06:52:15.265Z,26.6
2018-03-22T06:53:06.488Z,26.6
2018-03-22T06:53:54.983Z,26.8
2018-03-22T06:54:45.581Z,27
2018-03-22T06:55:34.722Z,27.3
2018-03-22T06:56:24.607Z,27.5
2018-03-22T06:58:06.558Z,28.1
2018-03-22T06:58:55.129Z,28.4
2018-03-22T06:59:45.384Z,28.6
2018-03-22T07:00:36.042Z,28.9
2018-03-22T07:01:26.304Z,29.1
2018-03-22T07:02:15.814Z,29.3
2018-03-22T07:03:07.087Z,29.5
2018-03-22T07:03:57.086Z,29.7
2018-03-22T07:04:47.160Z,29.9
2018-03-22T07:05:36.339Z,30.1
2018-03-22T07:06:26.057Z,30.3
2018-03-22T07:07:15.191Z,30.4
2018-03-22T07:08:06.558Z,30.5
2018-03-22T07:08:55.516Z,30.6
2018-03-22T07:09:46.576Z,30.8
2018-03-22T07:10:36.966Z,30.8
2018-03-22T07:11:26.191Z,31
2018-03-22T07:12:17.075Z,31.1
2018-03-22T07:13:06.729Z,31.1
2018-03-22T07:13:56.205Z,31.3
2018-03-22T07:14:46.417Z,31.3
2018-03-22T07:15:35.946Z,31.3
2018-03-22T07:16:27.143Z,31.2
2018-03-22T07:17:17.396Z,31
2018-03-22T07:18:07.594Z,30.8
2018-03-22T07:18:56.748Z,30.7
2018-03-22T07:19:47.705Z,30.5
2018-03-22T07:20:36.652Z,30.3
2018-03-22T07:21:27.939Z,30.2
2018-03-22T07:22:17.460Z,30.1
2018-03-22T07:23:07.262Z,29.9
2018-03-22T07:23:57.448Z,29.7
2018-03-22T07:24:47.333Z,29.1
2018-03-22T07:25:35.617Z,28.3
2018-03-22T07:27:18.450Z,27.5
2018-03-22T07:28:07.432Z,27.3
2018-03-22T07:28:57.818Z,27.2
2018-03-22T07:29:48.343Z,27
2018-03-22T07:30:38.094Z,26.9
2018-03-22T07:31:28.421Z,26.8
2018-03-22T07:32:18.624Z,26.6
2018-03-22T07:33:08.102Z,26.6
2018-03-22T07:33:59.049Z,26.6
2018-03-22T07:34:48.479Z,26.8
2018-03-22T07:35:40.262Z,26.9
2018-03-22T07:36:29.998Z,27.2
2018-03-22T07:37:19.510Z,27.5
2018-03-22T07:38:09.999Z,27.8
2018-03-22T07:38:59.650Z,28
2018-03-22T07:39:49.996Z,28.3
2018-03-22T07:40:38.826Z,28.5
2018-03-22T07:41:28.340Z,28.8
2018-03-22T07:42:19.227Z,28.9
2018-03-22T07:43:08.393Z,29.1
2018-03-22T07:43:58.380Z,29.3
2018-03-22T07:44:48.881Z,29.4
2018-03-22T07:45:38.856Z,29.6
2018-03-22T07:46:28.940Z,29.8
2018-03-22T07:47:19.638Z,29.9
2018-03-22T07:48:09.753Z,29.9
2018-03-22T07:48:59.967Z,30.1
2018-03-22T07:49:49.943Z,30.1
2018-03-22T07:50:38.127Z,30.3
2018-03-22T07:51:29.258Z,30.3
2018-03-22T07:52:18.718Z,30.4
2018-03-22T07:53:10.980Z,30.4
2018-03-22T07:54:00.410Z,30.6
2018-03-22T07:54:50.815Z,30.6
2018-03-22T07:55:39.624Z,30.7
2018-03-22T07:56:29.108Z,30.7
2018-03-22T07:57:20.655Z,30.8
2018-03-22T07:58:09.992Z,30.8
2018-03-22T07:59:00.119Z,30.8
2018-03-22T07:59:50.860Z,30.9
2018-03-22T08:00:40.042Z,30.9
2018-03-22T08:01:27.902Z,30.9
2018-03-22T08:02:19.205Z,30.9
2018-03-22T08:03:10.466Z,30.9
2018-03-22T08:04:00.146Z,31
2018-03-22T08:04:50.402Z,31
2018-03-22T08:05:40.235Z,31
2018-03-22T08:06:30.507Z,31
2018-03-22T08:07:20.054Z,31.1
2018-03-22T08:08:11.125Z,31.1
2018-03-22T08:09:00.053Z,31.1
2018-03-22T08:09:51.619Z,31.1
2018-03-22T08:10:40.472Z,31.1
2018-03-22T08:11:30.464Z,31.1
2018-03-22T08:12:20.529Z,31.1
2018-03-22T08:13:10.574Z,31.1
2018-03-22T08:14:00.334Z,31.1
2018-03-22T08:14:50.768Z,31.1
2018-03-22T08:15:40.547Z,31.1
2018-03-22T08:16:31.121Z,31.1
2018-03-22T08:17:21.288Z,31.1
2018-03-22T08:18:11.584Z,31.1
2018-03-22T08:19:00.741Z,31.1
2018-03-22T08:19:50.300Z,31.1
2018-03-22T08:20:41.954Z,31.1
2018-03-22T08:21:31.509Z,31.1
2018-03-22T08:22:21.409Z,31
2018-03-22T08:23:11.074Z,31
2018-03-22T08:24:01.101Z,31.1
2018-03-22T08:24:51.822Z,31
2018-03-22T08:25:40.575Z,31
2018-03-22T08:26:32.513Z,31
2018-03-22T08:27:21.724Z,31
2018-03-22T08:28:11.778Z,30.9
2018-03-22T08:29:02.432Z,31
2018-03-22T08:29:52.478Z,30.9
2018-03-22T08:30:40.865Z,30.9
2018-03-22T08:31:31.867Z,30.9
2018-03-22T08:32:22.352Z,30.9
2018-03-22T08:33:11.755Z,30.9
2018-03-22T08:34:02.153Z,30.9
2018-03-22T08:34:53.290Z,30.9
2018-03-22T08:35:42.140Z,30.8
2018-03-22T08:36:33.193Z,30.4
2018-03-22T08:37:22.605Z,30
2018-03-22T08:38:12.758Z,29.6
2018-03-22T08:39:02.417Z,29.1
2018-03-22T08:39:52.728Z,28.4
2018-03-22T08:40:43.438Z,27.5
2018-03-22T08:41:33.259Z,26.6
2018-03-22T08:42:23.905Z,25.6
2018-03-22T08:43:14.652Z,25.1
2018-03-22T08:44:02.749Z,25.3
2018-03-22T08:44:53.172Z,25.9
2018-03-22T08:45:42.879Z,26.6
2018-03-22T08:46:33.932Z,27.1
2018-03-22T08:47:23.030Z,27.6
2018-03-22T08:49:03.326Z,28.1
2018-03-22T08:49:53.546Z,28.5
2018-03-22T08:50:43.569Z,28.8
2018-03-22T08:51:34.184Z,29.1
2018-03-22T08:52:23.171Z,29.4
2018-03-22T08:53:12.232Z,29.6
2018-03-22T08:54:04.379Z,29.9
2018-03-22T08:54:55.964Z,30.1
2018-03-22T08:55:44.694Z,30.3
2018-03-22T08:56:35.521Z,30.6
2018-03-22T08:57:25.118Z,30.8
2018-03-22T08:58:14.951Z,30.9
2018-03-22T08:59:04.441Z,31.1
2018-03-22T08:59:53.624Z,31.3
2018-03-22T09:00:44.539Z,31.3
2018-03-22T09:01:33.608Z,31.1
2018-03-22T09:02:24.474Z,30.9
2018-03-22T09:03:14.741Z,30.8
2018-03-22T09:04:04.534Z,30.6
2018-03-22T09:04:54.809Z,30.5
2018-03-22T09:05:44.963Z,30.3
2018-03-22T09:06:34.598Z,30.2
2018-03-22T09:07:24.579Z,30
2018-03-22T09:08:14.487Z,29.9
2018-03-22T09:09:05.297Z,29.8
2018-03-22T09:09:55.002Z,29
2018-03-22T09:10:44.763Z,28.3
2018-03-22T09:11:35.575Z,27.9
2018-03-22T09:12:23.178Z,27.6
2018-03-22T09:13:14.772Z,27.4
2018-03-22T09:14:05.217Z,27.3
2018-03-22T09:14:54.875Z,27.1
2018-03-22T09:15:45.316Z,26.9
2018-03-22T09:16:34.828Z,26.9
2018-03-22T09:17:25.521Z,26.7
2018-03-22T09:18:15.311Z,26.6
2018-03-22T09:19:05.688Z,26.7
2018-03-22T09:19:56.037Z,26.8
2018-03-22T09:20:45.268Z,26.9
2018-03-22T09:21:35.385Z,27.3
2018-03-22T09:22:25.272Z,27.6
2018-03-22T09:23:15.498Z,27.9
2018-03-22T09:24:05.230Z,28.1
2018-03-22T09:24:55.362Z,28.4
2018-03-22T09:25:45.372Z,28.7
2018-03-22T09:26:35.120Z,28.9
2018-03-22T09:27:26.180Z,29.2
2018-03-22T09:28:16.053Z,29.4
2018-03-22T09:29:07.078Z,29.6
2018-03-22T09:29:56.134Z,29.9
2018-03-22T09:30:46.912Z,30.1
2018-03-22T09:31:36.181Z,30.3
2018-03-22T09:32:26.280Z,30.4
2018-03-22T09:33:16.998Z,30.6
2018-03-22T09:34:06.595Z,30.8
2018-03-22T09:34:57.350Z,30.9
2018-03-22T09:35:46.710Z,31.1
2018-03-22T09:36:36.326Z,31.2
2018-03-22T09:37:25.771Z,31.3
2018-03-22T09:38:18.465Z,31.3
2018-03-22T09:39:07.434Z,31.1
2018-03-22T09:39:57.131Z,30.9
2018-03-22T09:40:46.384Z,30.8
2018-03-22T09:41:37.534Z,30.6
2018-03-22T09:42:26.707Z,30.5
2018-03-22T09:43:16.344Z,30.3
2018-03-22T09:44:07.055Z,30.2
2018-03-22T09:44:56.791Z,30
2018-03-22T09:45:46.762Z,29.9
2018-03-22T09:46:36.576Z,29.7
2018-03-22T09:47:27.040Z,28.9
2018-03-22T09:48:17.676Z,28.2
2018-03-22T09:49:58.502Z,27.6
2018-03-22T09:50:47.473Z,27.4
2018-03-22T09:51:37.319Z,27.3
2018-03-22T09:52:27.763Z,27.1
2018-03-22T09:53:17.749Z,26.9
2018-03-22T09:54:07.219Z,26.8
2018-03-22T09:54:57.896Z,26.7
2018-03-22T09:55:48.459Z,26.6
2018-03-22T09:56:37.988Z,26.6
2018-03-22T09:57:29.773Z,26.8
2018-03-22T09:58:18.661Z,27
2018-03-22T09:59:10.200Z,27.3
2018-03-22T09:59:59.649Z,27.6
2018-03-22T10:01:40.343Z,28.1
2018-03-22T10:02:29.857Z,28.4
2018-03-22T10:03:19.840Z,28.6
2018-03-22T10:04:09.641Z,28.9
2018-03-22T10:04:59.185Z,29.1
2018-03-22T10:05:49.293Z,29.4
2018-03-22T10:06:40.377Z,29.5
2018-03-22T10:07:30.753Z,29.7
2018-03-22T10:08:20.468Z,29.9
2018-03-22T10:09:09.780Z,30.1
2018-03-22T10:09:59.290Z,30.2
2018-03-22T10:10:49.320Z,30.4
2018-03-22T10:11:40.468Z,30.5
2018-03-22T10:12:30.519Z,30.7
2018-03-22T10:13:20.342Z,30.8
2018-03-22T10:14:09.814Z,30.9
2018-03-22T10:14:59.624Z,31.1
2018-03-22T10:15:50.514Z,31.2
2018-03-22T10:16:40.838Z,31.3
2018-03-22T10:17:29.970Z,31.4
2018-03-22T10:18:21.264Z,31.2
2018-03-22T10:19:11.045Z,31
2018-03-22T10:20:00.790Z,30.9
2018-03-22T10:20:50.776Z,30.7
2018-03-22T10:21:40.436Z,30.6
2018-03-22T10:22:31.252Z,30.4
2018-03-22T10:23:21.007Z,30.2
2018-03-22T10:24:10.222Z,30.1
2018-03-22T10:25:00.791Z,29.9
2018-03-22T10:25:50.722Z,29.8
2018-03-22T10:26:41.433Z,29.3
2018-03-22T10:27:31.584Z,28.3
2018-03-22T10:28:21.312Z,27.9
2018-03-22T10:29:11.071Z,27.6
2018-03-22T10:30:01.789Z,27.4
2018-03-22T10:30:51.571Z,27.2
2018-03-22T10:31:41.322Z,27.1
2018-03-22T10:32:31.829Z,26.9
2018-03-22T10:33:21.669Z,26.8
2018-03-22T10:34:11.154Z,26.7
2018-03-22T10:35:01.236Z,26.6
2018-03-22T10:35:50.354Z,26.6
2018-03-22T10:36:39.123Z,26.8
2018-03-22T10:37:31.026Z,26.9
2018-03-22T10:38:22.168Z,27.2
2018-03-22T10:39:11.002Z,27.5
2018-03-22T10:40:00.259Z,27.8
2018-03-22T10:40:50.651Z,27.9
2018-03-22T10:41:41.613Z,28.3
2018-03-22T10:42:31.472Z,28.4
2018-03-22T10:43:22.595Z,28.7
2018-03-22T10:44:10.838Z,28.9
2018-03-22T10:45:01.773Z,29.2
2018-03-22T10:45:51.230Z,29.4
2018-03-22T10:46:41.475Z,29.6
2018-03-22T10:47:30.788Z,29.7
2018-03-22T10:48:22.805Z,29.9
2018-03-22T10:49:11.600Z,30.1
2018-03-22T10:50:01.299Z,30.2
2018-03-22T10:50:51.026Z,30.3
2018-03-22T10:51:42.197Z,30.4
2018-03-22T10:52:32.868Z,30.5
2018-03-22T10:53:22.352Z,30.6
2018-03-22T10:54:12.385Z,30.8
2018-03-22T10:55:01.836Z,30.8
2018-03-22T10:55:53.113Z,30.9
2018-03-22T10:56:41.760Z,31
2018-03-22T10:57:31.268Z,31.1
2018-03-22T10:58:21.840Z,31.1
2018-03-22T10:59:13.135Z,31.2
2018-03-22T11:00:01.627Z,31.3
2018-03-22T11:00:52.760Z,31.3
2018-03-22T11:01:41.760Z,31.4
2018-03-22T11:02:31.568Z,31.3
2018-03-22T11:03:23.289Z,31.1
2018-03-22T11:04:13.820Z,30.9
2018-03-22T11:05:01.853Z,30.8
2018-03-22T11:05:52.838Z,30.6
2018-03-22T11:06:43.390Z,30.4
2018-03-22T11:07:32.949Z,30.3
2018-03-22T11:08:23.714Z,30.1
2018-03-22T11:09:12.262Z,29.9
2018-03-22T11:10:02.881Z,29.8
2018-03-22T11:10:53.952Z,29.7
2018-03-22T11:11:42.929Z,28.8
2018-03-22T11:12:33.710Z,28.1
2018-03-22T11:13:23.504Z,27.8
2018-03-22T11:14:13.954Z,27.5
2018-03-22T11:15:02.804Z,27.3
2018-03-22T11:15:53.537Z,27.2
2018-03-22T11:16:43.577Z,27.1
2018-03-22T11:17:33.112Z,26.9
2018-03-22T11:18:23.286Z,26.8
2018-03-22T11:19:13.692Z,26.6